Time;durP1;ratioP1;P1;durP2;ratioP2;P2;SDS_P1;SDS_P2;PMS_P1;PMS_P2;Temp;Humidity;BMP_temperature;BMP_pressure;BME280_temperature;BME280_humidity;BME280_pressure;Samples;Min_cycle;Max_cycle;Signal;HPM_P1;HPM_P2
2021/09/25 00:00:50;;;;;;;27.13;19.60;;;11.30;99.90;;;;;;5115723;28;20536;-67
2021/09/25 00:03:17;;;;;;;23.27;18.47;;;11.40;99.90;;;;;;5113481;27;20477;-67
2021/09/25 00:05:44;;;;;;;36.73;29.20;;;11.40;99.90;;;;;;5115489;27;20433;-68
2021/09/25 00:08:11;;;;;;;38.60;28.20;;;11.50;99.90;;;;;;5115033;28;20481;-69
2021/09/25 00:10:38;;;;;;;28.30;22.87;;;11.40;99.90;;;;;;5115630;28;20445;-68
2021/09/25 00:13:06;;;;;;;26.53;18.77;;;11.40;99.90;;;;;;5127083;27;20437;-68
2021/09/25 00:15:35;;;;;;;26.37;20.80;;;11.50;99.90;;;;;;5127592;27;20501;-67
2021/09/25 00:18:05;;;;;;;23.67;19.20;;;11.40;99.90;;;;;;5117492;27;20951;-68
2021/09/25 00:20:32;;;;;;;22.50;20.10;;;11.40;99.90;;;;;;5115507;28;20455;-68
2021/09/25 00:22:59;;;;;;;21.20;18.27;;;11.40;99.90;;;;;;5119643;27;20480;-69
2021/09/25 00:25:26;;;;;;;21.43;17.50;;;11.30;99.90;;;;;;5136594;27;20447;-68
2021/09/25 00:27:53;;;;;;;26.43;18.97;;;11.30;99.90;;;;;;5136019;27;20551;-68
2021/09/25 00:30:20;;;;;;;20.90;17.57;;;11.30;99.90;;;;;;5129931;27;21033;-68
2021/09/25 00:32:49;;;;;;;24.60;19.10;;;11.30;99.90;;;;;;5126892;27;20456;-68
2021/09/25 00:35:17;;;;;;;23.10;19.30;;;11.20;99.90;;;;;;5135548;27;20496;-68
2021/09/25 00:37:43;;;;;;;22.17;18.80;;;11.10;99.90;;;;;;5135771;27;20456;-69
2021/09/25 00:40:13;;;;;;;23.13;19.67;;;11.10;99.90;;;;;;5135716;27;20484;-68
2021/09/25 00:42:41;;;;;;;23.13;18.87;;;11.10;99.90;;;;;;5134767;27;20472;-69
2021/09/25 00:45:09;;;;;;;20.87;17.43;;;11.00;99.90;;;;;;5121282;27;20441;-67
2021/09/25 00:47:37;;;;;;;23.37;20.73;;;11.10;99.90;;;;;;5126696;27;20461;-67
2021/09/25 00:50:07;;;;;;;22.37;18.20;;;11.10;99.90;;;;;;5113744;28;20447;-67
2021/09/25 00:52:34;;;;;;;24.93;19.40;;;11.10;99.90;;;;;;5114757;28;20543;-68
2021/09/25 00:55:01;;;;;;;24.67;18.80;;;11.10;99.90;;;;;;5114938;28;20441;-68
2021/09/25 00:57:28;;;;;;;24.20;18.73;;;11.10;99.90;;;;;;5115818;28;20526;-68
2021/09/25 00:59:55;;;;;;;21.33;16.87;;;11.00;99.90;;;;;;5115824;28;20445;-69
2021/09/25 01:02:22;;;;;;;21.63;17.60;;;11.00;99.90;;;;;;5115912;28;20514;-68
2021/09/25 01:04:50;;;;;;;20.40;16.53;;;10.90;99.90;;;;;;5116177;28;20549;-68
2021/09/25 01:07:18;;;;;;;20.80;16.90;;;10.90;99.90;;;;;;5135281;28;20456;-69
2021/09/25 01:09:45;;;;;;;17.97;16.07;;;10.80;99.90;;;;;;5139953;27;20448;-68
2021/09/25 01:12:12;;;;;;;21.37;17.23;;;10.80;99.90;;;;;;5139780;27;20512;-68
2021/09/25 01:14:39;;;;;;;20.90;16.27;;;10.80;99.90;;;;;;5132874;27;20513;-69
2021/09/25 01:17:09;;;;;;;19.60;16.53;;;10.80;99.90;;;;;;5124491;27;20488;-68
2021/09/25 01:19:36;;;;;;;17.70;15.80;;;10.80;99.90;;;;;;5120229;28;20472;-68
2021/09/25 01:22:05;;;;;;;21.63;17.40;;;10.80;99.90;;;;;;5119263;27;20493;-70
2021/09/25 01:24:33;;;;;;;18.30;16.20;;;10.80;99.90;;;;;;5119388;28;20477;-68
2021/09/25 01:27:00;;;;;;;23.17;17.63;;;10.70;99.90;;;;;;5120008;27;20461;-68
2021/09/25 01:29:28;;;;;;;18.70;16.07;;;10.70;99.90;;;;;;5125318;28;20441;-68
2021/09/25 01:31:55;;;;;;;23.53;17.60;;;10.70;99.90;;;;;;5120424;28;20453;-69
2021/09/25 01:34:22;;;;;;;19.40;16.77;;;10.70;99.90;;;;;;5121078;28;20441;-68
2021/09/25 01:36:49;;;;;;;21.23;16.37;;;10.70;99.90;;;;;;5121333;28;20559;-69
2021/09/25 01:39:18;;;;;;;21.17;14.97;;;10.70;99.90;;;;;;5121068;27;20452;-69
2021/09/25 01:41:45;;;;;;;21.90;15.60;;;10.70;99.90;;;;;;5132107;27;20452;-68
2021/09/25 01:44:11;;;;;;;21.43;16.70;;;10.60;99.90;;;;;;5132487;27;20484;-68
2021/09/25 01:46:38;;;;;;;18.20;15.80;;;10.60;99.90;;;;;;5128849;27;20465;-69
2021/09/25 01:49:05;;;;;;;23.37;15.27;;;10.60;99.90;;;;;;5121898;27;20451;-68
2021/09/25 01:51:32;;;;;;;17.63;13.83;;;10.50;99.90;;;;;;5119853;27;20496;-68
2021/09/25 01:53:59;;;;;;;17.77;15.87;;;10.40;99.90;;;;;;5120192;28;20430;-69
2021/09/25 01:56:28;;;;;;;16.03;13.30;;;10.40;99.90;;;;;;5121293;27;20469;-68
2021/09/25 01:58:54;;;;;;;17.10;15.10;;;10.40;99.90;;;;;;5120575;28;20488;-69
2021/09/25 02:01:21;;;;;;;19.70;15.80;;;10.30;99.90;;;;;;5119422;28;20438;-68
2021/09/25 02:03:49;;;;;;;17.77;15.90;;;10.40;99.90;;;;;;5120990;28;21172;-66
2021/09/25 02:06:15;;;;;;;20.37;14.90;;;10.40;99.90;;;;;;5126927;27;20488;-67
2021/09/25 02:08:45;;;;;;;18.50;14.70;;;10.30;99.90;;;;;;5135166;27;20468;-68
2021/09/25 02:11:13;;;;;;;16.73;14.20;;;10.30;99.90;;;;;;5135227;27;20445;-68
2021/09/25 02:13:41;;;;;;;15.13;13.13;;;10.30;99.90;;;;;;5128199;27;20452;-68
2021/09/25 02:16:09;;;;;;;16.90;14.40;;;10.40;99.90;;;;;;5128210;27;20524;-68
2021/09/25 02:18:36;;;;;;;15.87;14.27;;;10.40;99.90;;;;;;5118647;27;20937;-68
2021/09/25 02:21:04;;;;;;;16.27;13.20;;;10.40;99.90;;;;;;5117743;28;20441;-68
2021/09/25 02:23:32;;;;;;;16.73;13.47;;;10.30;99.90;;;;;;5116786;28;20493;-67
2021/09/25 02:25:59;;;;;;;16.40;13.60;;;10.30;99.90;;;;;;5117241;27;20847;-68
2021/09/25 02:28:26;;;;;;;18.70;14.00;;;10.20;99.90;;;;;;5116154;27;20869;-68
2021/09/25 02:30:55;;;;;;;17.10;14.03;;;10.20;99.90;;;;;;5118185;27;20462;-68
2021/09/25 02:33:22;;;;;;;19.17;15.30;;;10.10;99.90;;;;;;5114019;27;20441;-68
2021/09/25 02:35:50;;;;;;;25.10;15.13;;;10.10;99.90;;;;;;5113694;28;20805;-68
2021/09/25 02:38:17;;;;;;;22.87;16.27;;;10.10;99.90;;;;;;5115020;28;20438;-68
2021/09/25 02:40:44;;;;;;;18.80;14.43;;;10.10;99.90;;;;;;5116056;28;20827;-68
2021/09/25 02:43:12;;;;;;;20.73;16.47;;;10.20;99.90;;;;;;5114598;28;20433;-68
2021/09/25 02:45:39;;;;;;;22.70;17.33;;;10.20;99.90;;;;;;5115602;28;20540;-68
2021/09/25 02:48:07;;;;;;;20.63;16.17;;;10.20;99.90;;;;;;5116024;28;20536;-68
2021/09/25 02:50:34;;;;;;;24.23;18.43;;;10.10;99.90;;;;;;5116011;28;20433;-69
2021/09/25 02:53:01;;;;;;;22.93;16.90;;;10.10;99.90;;;;;;5114019;28;20467;-68
2021/09/25 02:55:27;;;;;;;26.47;18.37;;;10.10;99.90;;;;;;5115417;28;20435;-68
2021/09/25 02:57:54;;;;;;;24.40;18.77;;;10.10;99.90;;;;;;5115701;28;20458;-68
2021/09/25 03:00:23;;;;;;;22.50;17.63;;;10.10;99.90;;;;;;5115408;28;20508;-68
2021/09/25 03:02:50;;;;;;;23.43;19.00;;;10.10;99.90;;;;;;5113884;28;21030;-68
2021/09/25 03:05:18;;;;;;;19.00;16.07;;;10.10;99.90;;;;;;5115096;28;20473;-68
2021/09/25 03:07:46;;;;;;;23.17;19.00;;;10.10;99.90;;;;;;5116870;28;20552;-67
2021/09/25 03:10:13;;;;;;;24.53;18.80;;;10.10;99.90;;;;;;5114876;28;20436;-68
2021/09/25 03:12:40;;;;;;;29.23;20.60;;;10.10;99.90;;;;;;5114152;28;20438;-68
2021/09/25 03:15:08;;;;;;;22.17;19.23;;;10.10;99.90;;;;;;5115206;28;20433;-68
2021/09/25 03:17:36;;;;;;;23.57;17.60;;;10.10;99.90;;;;;;5114711;28;20504;-68
2021/09/25 03:20:04;;;;;;;21.17;16.70;;;10.10;99.90;;;;;;5114973;28;20438;-68
2021/09/25 03:22:33;;;;;;;19.70;15.97;;;10.10;99.90;;;;;;5113981;28;20448;-68
2021/09/25 03:25:03;;;;;;;21.57;15.20;;;10.00;99.90;;;;;;5114015;28;20481;-68
2021/09/25 03:27:30;;;;;;;21.37;16.97;;;10.00;99.90;;;;;;5114821;27;20465;-68
2021/09/25 03:29:57;;;;;;;20.50;15.37;;;10.00;99.90;;;;;;5115029;28;20443;-68
2021/09/25 03:32:24;;;;;;;20.27;13.63;;;10.00;99.90;;;;;;5112963;28;20840;-68
2021/09/25 03:34:50;;;;;;;16.53;14.27;;;10.00;99.90;;;;;;5114135;28;20469;-68
2021/09/25 03:37:17;;;;;;;18.43;14.47;;;10.10;99.90;;;;;;5114505;28;20547;-68
2021/09/25 03:39:46;;;;;;;17.30;13.97;;;10.00;99.90;;;;;;5115058;28;20445;-71
2021/09/25 03:42:12;;;;;;;16.83;14.00;;;9.90;99.90;;;;;;5113822;28;20536;-68
2021/09/25 03:44:39;;;;;;;21.30;15.23;;;10.00;99.90;;;;;;5114016;28;20473;-67
2021/09/25 03:47:06;;;;;;;17.23;15.33;;;9.90;99.90;;;;;;5114832;28;20537;-68
2021/09/25 03:49:33;;;;;;;19.23;15.70;;;9.90;99.90;;;;;;5115483;27;20440;-68
2021/09/25 03:52:00;;;;;;;19.30;13.80;;;9.90;99.90;;;;;;5113619;28;21001;-68
2021/09/25 03:54:27;;;;;;;20.27;16.60;;;9.90;99.90;;;;;;5113133;27;20445;-67
2021/09/25 03:56:55;;;;;;;21.27;16.03;;;10.00;99.90;;;;;;5113892;28;20441;-68
2021/09/25 03:59:22;;;;;;;21.53;15.23;;;10.10;99.90;;;;;;5114033;28;20516;-68
2021/09/25 04:01:49;;;;;;;21.20;16.60;;;10.20;99.90;;;;;;5113014;28;21036;-68
2021/09/25 04:04:16;;;;;;;24.60;16.63;;;10.30;99.90;;;;;;5112840;28;20516;-68
2021/09/25 04:06:42;;;;;;;24.33;16.20;;;10.40;99.90;;;;;;5113311;28;20544;-68
2021/09/25 04:09:09;;;;;;;18.83;15.00;;;10.50;99.90;;;;;;5112735;28;20447;-68
2021/09/25 04:11:37;;;;;;;18.27;14.43;;;10.50;99.90;;;;;;5111712;28;20445;-68
2021/09/25 04:14:05;;;;;;;19.17;14.67;;;10.50;99.90;;;;;;5112111;28;20811;-69
2021/09/25 04:16:33;;;;;;;19.30;15.93;;;10.50;99.90;;;;;;5113115;28;20463;-69
2021/09/25 04:19:00;;;;;;;18.53;13.80;;;10.40;99.90;;;;;;5112743;28;20438;-69
2021/09/25 04:21:27;;;;;;;19.77;14.57;;;10.30;99.90;;;;;;5112067;28;20536;-69
2021/09/25 04:23:53;;;;;;;22.30;14.73;;;10.20;99.90;;;;;;5112745;28;20536;-68
2021/09/25 04:26:20;;;;;;;17.03;15.10;;;10.20;99.90;;;;;;5112502;28;20548;-67
2021/09/25 04:28:47;;;;;;;17.73;13.33;;;10.10;99.90;;;;;;5112809;28;20870;-69
2021/09/25 04:31:15;;;;;;;17.47;14.00;;;10.10;99.90;;;;;;5112957;28;20700;-69
2021/09/25 04:33:42;;;;;;;22.37;15.93;;;10.10;99.90;;;;;;5111689;28;20502;-68
2021/09/25 04:36:09;;;;;;;16.30;13.60;;;10.20;99.90;;;;;;5112534;28;20460;-68
2021/09/25 04:38:36;;;;;;;17.00;13.40;;;10.20;99.90;;;;;;5112919;28;20437;-68
2021/09/25 04:41:03;;;;;;;17.00;13.83;;;10.20;99.90;;;;;;5112511;28;20543;-68
2021/09/25 04:43:30;;;;;;;16.30;13.33;;;10.10;99.90;;;;;;5113403;28;20532;-68
2021/09/25 04:45:57;;;;;;;22.80;16.00;;;10.00;99.90;;;;;;5116872;28;20483;-68
2021/09/25 04:48:26;;;;;;;17.87;12.90;;;9.90;99.90;;;;;;5117046;28;20599;-69
2021/09/25 04:50:53;;;;;;;16.73;14.20;;;9.90;99.90;;;;;;5117319;28;20473;-69
2021/09/25 04:53:20;;;;;;;16.37;12.53;;;9.90;99.90;;;;;;5115302;28;20441;-67
2021/09/25 04:55:47;;;;;;;17.90;13.60;;;9.90;99.90;;;;;;5116220;28;20441;-67
2021/09/25 04:58:14;;;;;;;19.07;13.73;;;9.80;99.90;;;;;;5116773;28;20445;-67
2021/09/25 05:00:41;;;;;;;16.63;13.30;;;9.90;99.90;;;;;;5116759;28;20520;-67
2021/09/25 05:03:07;;;;;;;18.23;14.43;;;9.90;99.90;;;;;;5114846;28;20433;-68
2021/09/25 05:05:35;;;;;;;14.87;12.90;;;10.00;99.90;;;;;;5116131;28;20502;-67
2021/09/25 05:08:02;;;;;;;16.23;13.10;;;10.00;99.90;;;;;;5116216;28;20457;-68
2021/09/25 05:10:29;;;;;;;14.50;11.37;;;10.00;99.90;;;;;;5116546;28;20437;-67
2021/09/25 05:12:56;;;;;;;15.20;13.07;;;10.00;99.90;;;;;;5115889;28;20463;-67
2021/09/25 05:15:23;;;;;;;16.33;13.87;;;10.00;99.90;;;;;;5117028;27;20433;-67
2021/09/25 05:17:50;;;;;;;17.57;12.87;;;10.00;99.90;;;;;;5117419;28;21029;-67
2021/09/25 05:20:16;;;;;;;18.67;13.47;;;9.90;99.90;;;;;;5116752;28;20529;-68
2021/09/25 05:22:45;;;;;;;19.40;14.00;;;9.90;99.90;;;;;;5114968;28;20451;-67
2021/09/25 05:25:12;;;;;;;17.50;13.27;;;9.90;99.90;;;;;;5114807;28;20503;-68
2021/09/25 05:27:39;;;;;;;15.30;12.63;;;9.80;99.90;;;;;;5115675;28;20476;-67
2021/09/25 05:30:08;;;;;;;16.97;12.43;;;9.80;99.90;;;;;;5115024;28;20433;-68
2021/09/25 05:32:35;;;;;;;15.60;13.20;;;9.80;99.90;;;;;;5114957;28;20482;-68
2021/09/25 05:35:02;;;;;;;19.20;14.07;;;9.80;99.90;;;;;;5115256;28;20429;-68
2021/09/25 05:37:29;;;;;;;17.30;13.03;;;9.80;99.90;;;;;;5114724;28;20488;-67
2021/09/25 05:39:58;;;;;;;14.80;12.20;;;9.90;99.90;;;;;;5114899;28;20539;-68
2021/09/25 05:42:26;;;;;;;16.33;13.73;;;9.90;99.90;;;;;;5114244;28;20922;-67
2021/09/25 05:44:54;;;;;;;15.20;13.10;;;9.90;99.90;;;;;;5114430;28;20993;-67
2021/09/25 05:47:21;;;;;;;17.13;13.47;;;9.90;99.90;;;;;;5114727;28;20492;-68
2021/09/25 05:49:48;;;;;;;16.47;13.00;;;9.80;99.90;;;;;;5114698;28;20451;-67
2021/09/25 05:52:16;;;;;;;19.03;13.07;;;9.80;99.90;;;;;;5113764;28;20583;-67
2021/09/25 05:54:43;;;;;;;14.57;12.83;;;9.80;99.90;;;;;;5114173;28;20592;-67
2021/09/25 05:57:12;;;;;;;19.37;13.93;;;9.80;99.90;;;;;;5116587;28;20543;-68
2021/09/25 05:59:39;;;;;;;18.43;13.97;;;9.80;99.90;;;;;;5115203;28;20976;-68
2021/09/25 06:02:06;;;;;;;13.27;11.60;;;9.80;99.90;;;;;;5114293;28;20445;-67
2021/09/25 06:04:33;;;;;;;17.60;13.10;;;9.90;99.90;;;;;;5114448;28;20447;-68
2021/09/25 06:07:00;;;;;;;14.67;13.13;;;9.90;99.90;;;;;;5117212;28;20488;-68
2021/09/25 06:09:27;;;;;;;14.13;12.10;;;9.90;99.90;;;;;;5116330;28;20536;-68
2021/09/25 06:11:54;;;;;;;16.70;12.70;;;9.90;99.90;;;;;;5113183;27;20827;-67
2021/09/25 06:14:23;;;;;;;16.40;12.90;;;9.90;99.90;;;;;;5113366;28;20491;-67
2021/09/25 06:16:50;;;;;;;14.90;13.10;;;9.90;99.90;;;;;;5114089;28;20874;-68
2021/09/25 06:19:17;;;;;;;17.70;13.37;;;10.00;99.90;;;;;;5113575;28;20860;-69
2021/09/25 06:21:44;;;;;;;16.17;12.63;;;10.10;99.90;;;;;;5112706;28;20532;-69
2021/09/25 06:24:11;;;;;;;14.20;12.00;;;10.20;99.90;;;;;;5113006;28;20433;-69
2021/09/25 06:26:38;;;;;;;15.10;13.20;;;10.30;99.90;;;;;;5113249;28;20477;-69
2021/09/25 06:29:05;;;;;;;15.47;13.67;;;10.40;99.90;;;;;;5113854;28;20451;-69
2021/09/25 06:31:34;;;;;;;15.23;12.97;;;10.50;99.90;;;;;;5112767;28;20443;-69
2021/09/25 06:34:01;;;;;;;16.83;13.37;;;10.50;99.90;;;;;;5112860;28;20441;-70
2021/09/25 06:36:28;;;;;;;13.33;11.43;;;10.60;99.90;;;;;;5113247;28;20464;-69
2021/09/25 06:38:56;;;;;;;18.07;12.87;;;10.70;99.90;;;;;;5113645;28;20452;-69
2021/09/25 06:41:22;;;;;;;14.77;13.23;;;10.70;99.90;;;;;;5112274;28;20441;-68
2021/09/25 06:43:49;;;;;;;14.87;13.33;;;10.80;99.90;;;;;;5111661;28;20947;-66
2021/09/25 06:46:16;;;;;;;14.20;11.50;;;10.90;99.90;;;;;;5111905;28;20481;-68
2021/09/25 06:48:47;;;;;;;16.77;12.17;;;10.90;99.90;;;;;;5112092;28;20461;-69
2021/09/25 06:51:15;;;;;;;16.80;12.77;;;11.10;99.90;;;;;;5114291;28;20441;-70
2021/09/25 06:53:42;;;;;;;13.23;11.87;;;11.10;99.90;;;;;;5115108;28;20444;-69
2021/09/25 06:56:09;;;;;;;19.80;13.60;;;11.20;99.90;;;;;;5132761;27;20551;-70
2021/09/25 06:58:36;;;;;;;14.97;11.50;;;11.30;99.90;;;;;;5135995;27;20527;-68
2021/09/25 07:01:02;;;;;;;14.80;12.63;;;11.40;99.90;;;;;;5135986;27;20944;-69
2021/09/25 07:03:29;;;;;;;16.30;13.03;;;11.50;99.90;;;;;;5136004;27;20448;-68
2021/09/25 07:05:58;;;;;;;17.70;14.20;;;11.60;99.90;;;;;;5135654;27;20476;-68
2021/09/25 07:08:24;;;;;;;21.43;13.70;;;11.70;99.90;;;;;;5135394;27;20539;-69
2021/09/25 07:10:51;;;;;;;21.50;14.20;;;11.70;99.90;;;;;;5134113;27;20543;-66
2021/09/25 07:13:18;;;;;;;16.97;13.83;;;11.90;99.90;;;;;;5132007;27;20963;-67
2021/09/25 07:15:45;;;;;;;16.20;13.50;;;11.90;99.90;;;;;;5136072;27;20439;-68
2021/09/25 07:18:12;;;;;;;14.97;13.40;;;12.10;99.90;;;;;;5138800;27;20463;-69
2021/09/25 07:20:43;;;;;;;17.50;14.20;;;12.20;99.90;;;;;;5141799;27;20465;-67
2021/09/25 07:23:12;;;;;;;14.23;12.73;;;12.30;99.90;;;;;;5140460;27;20466;-69
2021/09/25 07:25:39;;;;;;;17.27;12.80;;;12.40;99.90;;;;;;5135127;27;20476;-69
2021/09/25 07:28:07;;;;;;;16.83;13.23;;;12.50;99.90;;;;;;5133267;27;20476;-70
2021/09/25 07:30:37;;;;;;;18.47;14.40;;;12.60;99.90;;;;;;5137651;27;20464;-70
2021/09/25 07:33:04;;;;;;;15.00;12.57;;;12.70;99.90;;;;;;5133120;27;20444;-69
2021/09/25 07:35:34;;;;;;;14.03;11.80;;;12.90;99.90;;;;;;5134716;27;20448;-69
2021/09/25 07:38:02;;;;;;;13.10;10.43;;;13.00;99.90;;;;;;5133330;27;20852;-70
2021/09/25 07:40:30;;;;;;;13.67;10.90;;;13.10;99.90;;;;;;5133257;27;20460;-71
2021/09/25 07:42:57;;;;;;;12.93;10.63;;;13.20;99.90;;;;;;5138166;27;20440;-69
2021/09/25 07:45:24;;;;;;;12.03;10.73;;;13.30;99.90;;;;;;5151842;27;20479;-69
2021/09/25 07:47:51;;;;;;;11.97;9.97;;;13.40;99.90;;;;;;5159812;27;20526;-70
2021/09/25 07:50:17;;;;;;;13.03;9.83;;;13.50;99.90;;;;;;5155845;27;20943;-68
2021/09/25 07:52:44;;;;;;;11.97;9.63;;;13.70;99.90;;;;;;5158379;27;20522;-71
2021/09/25 07:55:13;;;;;;;11.27;10.17;;;13.80;99.90;;;;;;5158742;27;20497;-68
2021/09/25 07:57:42;;;;;;;13.53;10.87;;;13.90;99.90;;;;;;5153540;27;20574;-69
2021/09/25 08:00:12;;;;;;;13.90;9.17;;;14.00;99.90;;;;;;5153021;27;20522;-68
2021/09/25 08:02:40;;;;;;;10.88;9.40;;;14.20;99.90;;;;;;5150664;27;20515;-67
2021/09/25 08:05:08;;;;;;;11.40;9.07;;;14.30;99.90;;;;;;5151496;27;20667;-66
2021/09/25 08:07:35;;;;;;;10.93;9.73;;;14.40;99.90;;;;;;5151702;27;20459;-67
2021/09/25 08:10:02;;;;;;;10.10;9.00;;;14.60;99.90;;;;;;5152099;27;20534;-67
2021/09/25 08:12:29;;;;;;;8.83;7.93;;;14.70;99.90;;;;;;5151013;27;20542;-66
2021/09/25 08:14:57;;;;;;;10.00;8.27;;;14.80;99.90;;;;;;5151767;27;20815;-67
2021/09/25 08:17:24;;;;;;;9.90;7.80;;;14.80;99.90;;;;;;5151303;27;20495;-67
2021/09/25 08:19:51;;;;;;;9.10;8.17;;;15.00;99.90;;;;;;5152171;27;20447;-67
2021/09/25 08:22:19;;;;;;;10.20;8.10;;;15.20;99.90;;;;;;5151109;27;20539;-66
2021/09/25 08:24:46;;;;;;;10.17;9.17;;;15.30;99.90;;;;;;5152164;27;20530;-67
2021/09/25 08:27:13;;;;;;;9.60;8.03;;;15.50;99.90;;;;;;5152661;27;20483;-68
2021/09/25 08:29:40;;;;;;;9.83;8.60;;;15.60;99.90;;;;;;5128580;27;20437;-66
2021/09/25 08:32:10;;;;;;;8.60;7.70;;;15.80;99.90;;;;;;5120163;27;20443;-67
2021/09/25 08:34:36;;;;;;;10.03;7.90;;;15.90;99.90;;;;;;5116950;27;20438;-67
2021/09/25 08:37:05;;;;;;;9.80;7.20;;;16.10;99.90;;;;;;5118002;27;20471;-67
2021/09/25 08:39:33;;;;;;;8.90;7.57;;;16.30;99.90;;;;;;5119888;27;20454;-68
2021/09/25 08:42:01;;;;;;;8.23;7.03;;;16.50;99.90;;;;;;5120101;27;20452;-66
2021/09/25 08:44:30;;;;;;;8.30;7.50;;;16.70;99.90;;;;;;5121730;27;20436;-67
2021/09/25 08:46:58;;;;;;;11.47;7.53;;;16.90;99.90;;;;;;5119443;27;20521;-67
2021/09/25 08:49:26;;;;;;;8.43;7.50;;;17.20;99.90;;;;;;5118693;28;20464;-66
2021/09/25 08:51:53;;;;;;;9.73;7.20;;;17.30;99.90;;;;;;5117248;27;21182;-68
2021/09/25 08:54:20;;;;;;;10.63;8.40;;;17.60;99.90;;;;;;5123294;28;20440;-67
2021/09/25 08:56:47;;;;;;;9.00;8.10;;;17.80;99.90;;;;;;5120706;27;20472;-68
2021/09/25 08:59:14;;;;;;;8.57;7.40;;;18.00;99.90;;;;;;5124832;28;20512;-67
2021/09/25 09:01:44;;;;;;;9.57;8.03;;;18.30;99.90;;;;;;5129060;27;20539;-67
2021/09/25 09:04:11;;;;;;;8.93;8.03;;;18.50;99.90;;;;;;5127025;27;20479;-67
2021/09/25 09:06:40;;;;;;;8.43;7.57;;;18.70;99.90;;;;;;5133497;27;20476;-67
2021/09/25 09:09:09;;;;;;;7.90;7.10;;;18.90;99.90;;;;;;5127387;27;21056;-67
2021/09/25 09:11:42;;;;;;;9.00;7.90;;;19.40;99.90;;;;;;5126310;27;20448;-70
2021/09/25 09:14:09;;;;;;;7.90;7.00;;;19.60;99.90;;;;;;5125901;27;20821;-67
2021/09/25 09:16:36;;;;;;;7.70;7.00;;;20.00;99.90;;;;;;5127395;27;20523;-69
2021/09/25 09:19:03;;;;;;;9.33;8.07;;;20.20;99.90;;;;;;5132442;27;20496;-66
2021/09/25 09:21:31;;;;;;;8.40;7.30;;;20.50;99.90;;;;;;5137091;27;20819;-67
2021/09/25 09:24:01;;;;;;;9.07;8.17;;;20.80;99.90;;;;;;5134624;27;20483;-66
2021/09/25 09:26:31;;;;;;;8.30;7.50;;;21.20;99.90;;;;;;5127736;27;20969;-67
2021/09/25 09:29:00;;;;;;;8.40;7.10;;;21.60;99.90;;;;;;5130136;27;20850;-69
2021/09/25 09:31:28;;;;;;;7.97;6.70;;;21.90;99.90;;;;;;5140529;27;20477;-68
2021/09/25 09:33:58;;;;;;;6.53;5.93;;;22.10;99.90;;;;;;5137596;27;20454;-67
2021/09/25 09:36:28;;;;;;;7.27;5.80;;;22.60;99.90;;;;;;5148354;27;20487;-67
2021/09/25 09:39:01;;;;;;;10.00;6.47;;;22.80;99.90;;;;;;5135320;27;20550;-68
2021/09/25 09:41:30;;;;;;;7.13;6.20;;;23.10;99.90;;;;;;5140271;27;20465;-67
2021/09/25 09:44:00;;;;;;;7.27;5.60;;;23.30;99.90;;;;;;5143746;27;21042;-67
2021/09/25 09:46:36;;;;;;;6.13;5.53;;;23.50;99.90;;;;;;5134648;27;20514;-67
2021/09/25 09:49:04;;;;;;;6.47;5.80;;;23.80;99.90;;;;;;5137704;27;20431;-69
2021/09/25 09:51:42;;;;;;;6.70;5.40;;;24.00;99.90;;;;;;5140688;27;20979;-70
2021/09/25 09:54:19;;;;;;;6.30;5.70;;;24.30;99.90;;;;;;5146491;27;20998;-68
2021/09/25 09:56:47;;;;;;;6.27;5.67;;;24.20;99.90;;;;;;5129408;27;20550;-69
2021/09/25 09:59:15;;;;;;;5.60;5.00;;;24.30;99.90;;;;;;5143346;27;20436;-69
2021/09/25 10:01:43;;;;;;;6.37;5.43;;;24.70;99.60;;;;;;5141508;27;20439;-67
2021/09/25 10:04:11;;;;;;;6.50;5.67;;;25.00;99.90;;;;;;5135208;27;20455;-67
2021/09/25 10:06:39;;;;;;;5.77;5.17;;;25.30;99.90;;;;;;5147917;27;20475;-67
2021/09/25 10:09:08;;;;;;;6.80;6.00;;;25.60;98.60;;;;;;5132606;27;20447;-67
2021/09/25 10:11:38;;;;;;;7.37;5.50;;;26.10;98.10;;;;;;5126041;27;20470;-66
2021/09/25 10:14:06;;;;;;;6.10;5.50;;;25.90;99.50;;;;;;5128180;27;21011;-73
2021/09/25 10:16:34;;;;;;;6.07;5.47;;;25.90;97.10;;;;;;5149045;27;20543;-71
2021/09/25 10:19:03;;;;;;;8.33;6.67;;;26.20;96.70;;;;;;5129742;27;20527;-69
2021/09/25 10:21:33;;;;;;;6.23;5.63;;;26.50;96.70;;;;;;5130617;27;20487;-75
2021/09/25 10:24:06;;;;;;;5.97;5.47;;;26.80;95.80;;;;;;5129062;27;20798;-69
2021/09/25 10:26:33;;;;;;;6.37;5.77;;;26.80;94.50;;;;;;5131071;27;20488;-69
2021/09/25 10:29:04;;;;;;;6.40;5.60;;;26.70;95.10;;;;;;5129671;27;21029;-72
2021/09/25 10:31:31;;;;;;;7.20;6.60;;;27.20;95.10;;;;;;5125503;27;20543;-67
2021/09/25 10:34:07;;;;;;;6.17;5.47;;;27.60;93.70;;;;;;5130521;27;20440;-69
2021/09/25 10:36:39;;;;;;;7.60;5.93;;;28.10;94.20;;;;;;5128972;27;20543;-67
2021/09/25 10:39:24;;;;;;;7.50;5.90;;;28.30;93.10;;;;;;5129797;27;21287;-67
2021/09/25 10:41:58;;;;;;;6.40;5.80;;;28.80;93.40;;;;;;5128838;27;20459;-69
2021/09/25 10:44:28;;;;;;;6.57;5.87;;;29.00;91.40;;;;;;5130615;27;20439;-68
2021/09/25 10:47:09;;;;;;;7.30;5.37;;;29.50;91.50;;;;;;5131587;27;20484;-67
2021/09/25 10:49:50;;;;;;;6.20;5.53;;;29.50;89.00;;;;;;5131940;27;20445;-66
2021/09/25 10:52:19;;;;;;;5.73;5.20;;;30.10;87.90;;;;;;5131831;27;20440;-67
2021/09/25 10:55:06;;;;;;;5.07;4.57;;;30.20;89.70;;;;;;5133633;27;20455;-67
2021/09/25 10:57:33;;;;;;;6.83;6.23;;;30.30;85.70;;;;;;5136698;27;21048;-67
2021/09/25 11:00:23;;;;;;;5.50;5.00;;;30.90;84.00;;;;;;5153007;27;20439;-68
2021/09/25 11:02:50;;;;;;;5.90;5.30;;;31.20;82.90;;;;;;5152293;27;20454;-67
2021/09/25 11:05:38;;;;;;;6.30;5.10;;;31.60;83.30;;;;;;5153304;27;20539;-67
2021/09/25 11:08:14;;;;;;;6.47;5.23;;;31.80;81.50;;;;;;5152834;27;20487;-68
2021/09/25 11:11:06;;;;;;;6.10;5.50;;;32.40;76.50;;;;;;5130348;27;21071;-67
2021/09/25 11:14:24;;;;;;;5.80;5.30;;;32.20;77.20;;;;;;5127591;27;20472;-69
2021/09/25 11:17:10;;;;;;;7.23;5.20;;;31.90;76.20;;;;;;5118886;27;20509;-64
2021/09/25 11:19:42;;;;;;;5.70;5.10;;;32.40;77.80;;;;;;5125988;27;20444;-67
2021/09/25 11:22:13;;;;;;;6.47;5.00;;;33.00;74.00;;;;;;5123078;27;20433;-67
2021/09/25 11:24:43;;;;;;;9.00;5.20;;;32.50;74.10;;;;;;5117567;27;20444;-68
2021/09/25 11:27:14;;;;;;;6.27;4.50;;;33.00;73.40;;;;;;5118829;27;21004;-67
2021/09/25 11:29:59;;;;;;;5.17;4.77;;;33.70;73.40;;;;;;5117828;27;21155;-68
2021/09/25 11:32:29;;;;;;;6.17;5.13;;;33.80;71.60;;;;;;5143670;27;20448;-67
2021/09/25 11:34:57;;;;;;;4.97;4.47;;;34.40;66.50;;;;;;5133420;27;20985;-68
2021/09/25 11:37:24;;;;;;;5.77;5.17;;;34.30;65.80;;;;;;5147074;27;20550;-68
2021/09/25 11:39:52;;;;;;;4.97;4.47;;;34.00;66.00;;;;;;5132043;27;20519;-66
2021/09/25 11:42:22;;;;;;;5.17;4.67;;;33.40;70.00;;;;;;5143221;27;20434;-67
2021/09/25 11:44:54;;;;;;;6.00;5.50;;;33.50;66.40;;;;;;5133257;27;20437;-67
2021/09/25 11:47:34;;;;;;;5.53;4.87;;;33.30;66.00;;;;;;5144208;27;20480;-67
2021/09/25 11:50:12;;;;;;;5.93;5.40;;;32.50;68.70;;;;;;5111057;28;20804;-67
2021/09/25 11:52:41;;;;;;;6.30;5.70;;;32.60;70.80;;;;;;5107452;28;20475;-68
2021/09/25 11:55:11;;;;;;;5.63;5.00;;;33.60;72.10;;;;;;5109055;28;20438;-68
2021/09/25 11:57:38;;;;;;;5.93;5.33;;;34.50;67.50;;;;;;5110575;27;20461;-68
2021/09/25 12:00:22;;;;;;;5.67;5.17;;;35.00;64.60;;;;;;5127471;27;20440;-67
2021/09/25 12:02:52;;;;;;;6.40;5.80;;;35.70;63.20;;;;;;5125839;27;20455;-67
2021/09/25 12:05:28;;;;;;;5.80;5.30;;;35.70;61.60;;;;;;5128677;27;20436;-68
2021/09/25 12:07:57;;;;;;;8.27;5.70;;;35.80;59.50;;;;;;5130725;27;20488;-67
2021/09/25 12:10:26;;;;;;;5.50;5.00;;;36.60;59.80;;;;;;5127599;27;20429;-68
2021/09/25 12:12:59;;;;;;;5.70;5.20;;;37.40;57.80;;;;;;5129518;27;20437;-68
2021/09/25 12:15:29;;;;;;;5.40;4.90;;;35.70;58.40;;;;;;5133281;27;20452;-67
2021/09/25 12:18:09;;;;;;;5.73;5.10;;;34.90;59.60;;;;;;5120272;27;20464;-67
2021/09/25 12:20:36;;;;;;;5.97;5.47;;;33.80;60.10;;;;;;5109822;28;20533;-66
2021/09/25 12:23:06;;;;;;;5.47;4.87;;;33.70;63.10;;;;;;5108713;28;20520;-67
2021/09/25 12:25:34;;;;;;;4.77;4.30;;;34.20;62.70;;;;;;5107953;28;20442;-66
2021/09/25 12:28:01;;;;;;;5.53;5.03;;;34.40;62.90;;;;;;5109818;28;20484;-67
2021/09/25 12:30:28;;;;;;;5.67;5.17;;;35.50;63.50;;;;;;5110142;28;20532;-67
2021/09/25 12:33:02;;;;;;;6.10;5.40;;;35.10;58.80;;;;;;5109280;28;20469;-66
2021/09/25 12:35:30;;;;;;;5.30;4.80;;;34.40;59.40;;;;;;5110383;28;20974;-66
2021/09/25 12:37:57;;;;;;;7.37;4.97;;;33.00;62.70;;;;;;5109331;28;20499;-71
2021/09/25 12:40:24;;;;;;;6.90;5.37;;;32.40;66.20;;;;;;5109772;28;20449;-66
2021/09/25 12:42:52;;;;;;;7.40;5.57;;;32.80;63.70;;;;;;5109112;28;21017;-67